createdAt,value
2018-12-23T00:01:11.188Z,10.93
2018-12-23T00:03:48.085Z,13.48
2018-12-23T00:06:26.366Z,19.92
2018-12-23T00:09:09.052Z,14.93
2018-12-23T00:11:42.716Z,14.60
2018-12-23T00:14:17.382Z,12.50
2018-12-23T00:16:50.033Z,19.87
2018-12-23T00:19:29.245Z,15.35
2018-12-23T00:22:03.056Z,21.77
2018-12-23T00:24:35.678Z,14.38
2018-12-23T00:27:08.202Z,18.85
2018-12-23T00:29:40.831Z,16.67
2018-12-23T00:32:13.397Z,19.37
2018-12-23T00:34:46.707Z,24.60
2018-12-23T00:37:19.259Z,29.57
2018-12-23T00:39:52.249Z,22.98
2018-12-23T00:42:25.480Z,27.93
2018-12-23T00:44:58.648Z,20.05
2018-12-23T00:47:31.265Z,28.75
2018-12-23T00:50:04.940Z,37.55
2018-12-23T00:52:37.490Z,30.90
2018-12-23T00:55:10.154Z,34.70
2018-12-23T00:57:42.809Z,33.23
2018-12-23T01:00:15.445Z,39.33
2018-12-23T01:02:48.320Z,33.67
2018-12-23T01:05:28.621Z,33.88
2018-12-23T01:07:55.733Z,38.28
2018-12-23T01:10:28.283Z,35.73
2018-12-23T01:13:01.975Z,34.10
2018-12-23T01:15:34.546Z,25.65
2018-12-23T01:18:07.176Z,36.77
2018-12-23T01:20:39.723Z,31.68
2018-12-23T01:23:12.349Z,33.35
2018-12-23T01:25:44.938Z,34.45
2018-12-23T01:28:17.639Z,40.20
2018-12-23T01:30:50.233Z,33.50
2018-12-23T01:33:22.893Z,33.78
2018-12-23T01:35:55.523Z,32.28
2018-12-23T01:38:28.069Z,30.02
2018-12-23T01:41:00.603Z,17.20
2018-12-23T01:43:33.292Z,21.10
2018-12-23T01:46:06.209Z,15.45
2018-12-23T01:48:38.795Z,17.37
2018-12-23T01:51:11.362Z,20.88
2018-12-23T01:53:44.029Z,14.35
2018-12-23T01:56:16.608Z,22.35
2018-12-23T01:58:49.212Z,26.97
2018-12-23T02:01:21.841Z,18.10
2018-12-23T02:03:54.422Z,23.47
2018-12-23T02:06:28.806Z,26.75
2018-12-23T02:09:01.410Z,21.30
2018-12-23T02:11:36.027Z,24.15
2018-12-23T02:14:08.588Z,23.52
2018-12-23T02:16:41.183Z,23.90
2018-12-23T02:19:13.757Z,23.60
2018-12-23T02:21:46.347Z,24.25
2018-12-23T02:24:18.954Z,33.55
2018-12-23T02:26:51.495Z,31.45
2018-12-23T02:29:24.130Z,27.42
2018-12-23T02:31:56.797Z,32.40
2018-12-23T02:34:29.348Z,35.33
2018-12-23T02:37:01.939Z,30.88
2018-12-23T02:39:35.557Z,39.45
2018-12-23T02:42:08.365Z,36.20
2018-12-23T02:44:40.873Z,36.53
2018-12-23T02:47:13.470Z,32.98
2018-12-23T02:49:46.016Z,32.30
2018-12-23T02:52:18.579Z,44.27
2018-12-23T02:54:51.151Z,43.15
2018-12-23T02:57:23.731Z,33.90
2018-12-23T02:59:56.445Z,47.90
2018-12-23T03:02:29.070Z,38.88
2018-12-23T03:05:01.720Z,37.15
2018-12-23T03:07:34.802Z,38.20
2018-12-23T03:10:07.437Z,35.05
2018-12-23T03:12:39.990Z,37.03
2018-12-23T03:15:12.506Z,30.88
2018-12-23T03:17:45.118Z,31.48
2018-12-23T03:20:17.791Z,39.18
2018-12-23T03:22:50.353Z,27.87
2018-12-23T03:25:22.973Z,36.77
2018-12-23T03:27:55.662Z,42.33
2018-12-23T03:30:28.253Z,46.20
2018-12-23T03:33:01.145Z,26.02
2018-12-23T03:35:33.789Z,34.18
2018-12-23T03:38:06.419Z,35.78
2018-12-23T03:40:38.965Z,40.63
2018-12-23T03:43:11.457Z,36.55
2018-12-23T03:45:44.055Z,37.93
2018-12-23T03:48:17.139Z,38.65
2018-12-23T03:50:49.649Z,26.85
2018-12-23T03:53:22.570Z,38.55
2018-12-23T03:55:55.092Z,34.18
2018-12-23T03:58:27.644Z,28.83
2018-12-23T04:01:00.212Z,29.05
2018-12-23T04:03:34.662Z,25.75
2018-12-23T04:06:07.681Z,29.02
2018-12-23T04:08:40.262Z,34.05
2018-12-23T04:11:14.715Z,35.08
2018-12-23T04:13:49.870Z,29.65
2018-12-23T04:16:24.082Z,27.45
2018-12-23T04:18:57.472Z,28.12
2018-12-23T04:21:29.989Z,39.35
2018-12-23T04:24:02.659Z,27.48
2018-12-23T04:26:35.779Z,27.93
2018-12-23T04:29:09.639Z,28.83
2018-12-23T04:31:42.497Z,24.00
2018-12-23T04:34:15.041Z,31.85
2018-12-23T04:36:48.707Z,27.80
2018-12-23T04:39:21.311Z,32.08
2018-12-23T04:41:53.875Z,25.72
2018-12-23T04:44:26.471Z,30.68
2018-12-23T04:46:59.178Z,23.65
2018-12-23T04:49:31.806Z,33.20
2018-12-23T04:52:04.436Z,28.42
2018-12-23T04:54:37.017Z,29.82
2018-12-23T04:57:10.113Z,30.80
2018-12-23T04:59:42.682Z,35.43
2018-12-23T05:02:15.252Z,41.73
2018-12-23T05:04:47.807Z,31.90
2018-12-23T05:07:22.547Z,35.75
2018-12-23T05:09:55.112Z,33.73
2018-12-23T05:12:27.661Z,46.95
2018-12-23T05:15:00.277Z,45.10
2018-12-23T05:17:32.903Z,41.88
2018-12-23T05:20:06.354Z,50.70
2018-12-23T05:22:38.944Z,48.05
2018-12-23T05:25:11.508Z,37.00
2018-12-23T05:27:44.903Z,46.08
2018-12-23T05:30:17.478Z,41.65
2018-12-23T05:32:50.055Z,41.53
2018-12-23T05:35:22.715Z,40.08
2018-12-23T05:37:55.207Z,42.20
2018-12-23T05:40:27.799Z,39.13
2018-12-23T05:43:00.525Z,48.42
2018-12-23T05:47:02.590Z,39.92
2018-12-23T05:49:35.147Z,39.42
2018-12-23T05:52:07.681Z,39.20
2018-12-23T05:54:40.200Z,39.55
2018-12-23T05:57:13.462Z,38.80
2018-12-23T05:59:46.033Z,46.95
2018-12-23T06:02:18.547Z,43.75
2018-12-23T06:04:51.343Z,44.55
2018-12-23T06:07:23.882Z,44.65
2018-12-23T06:09:56.406Z,42.73
2018-12-23T06:12:28.924Z,50.60
2018-12-23T06:15:01.447Z,48.90
2018-12-23T06:17:34.056Z,44.42
2018-12-23T06:20:06.744Z,47.55
2018-12-23T06:22:39.274Z,40.03
2018-12-23T06:25:11.883Z,40.90
2018-12-23T06:27:44.418Z,48.73
2018-12-23T06:30:16.982Z,52.20
2018-12-23T06:32:49.465Z,48.48
2018-12-23T06:35:22.041Z,46.75
2018-12-23T06:37:54.578Z,41.80
2018-12-23T06:40:27.807Z,52.10
2018-12-23T06:43:00.324Z,57.35
2018-12-23T06:45:33.855Z,57.88
2018-12-23T06:48:06.409Z,54.03
2018-12-23T06:50:39.006Z,51.77
2018-12-23T06:53:11.509Z,52.70
2018-12-23T06:55:44.111Z,45.80
2018-12-23T06:58:16.661Z,68.28
2018-12-23T07:00:49.210Z,48.95
2018-12-23T07:03:21.735Z,48.92
2018-12-23T07:05:54.292Z,47.27
2018-12-23T07:12:33.718Z,50.38
2018-12-23T07:15:06.866Z,48.73
2018-12-23T07:17:40.710Z,54.67
2018-12-23T07:20:14.959Z,57.48
2018-12-23T07:22:49.330Z,51.00
2018-12-23T07:25:22.750Z,62.30
2018-12-23T07:27:56.876Z,46.90
2018-12-23T07:30:30.261Z,54.60
2018-12-23T07:33:04.044Z,54.25
2018-12-23T07:35:37.795Z,45.65
2018-12-23T07:38:11.300Z,40.63
2018-12-23T07:40:45.613Z,49.95
2018-12-23T07:43:19.504Z,41.10
2018-12-23T07:45:53.825Z,43.45
2018-12-23T07:48:28.116Z,41.02
2018-12-23T07:51:02.286Z,45.90
2018-12-23T07:53:36.778Z,39.30
2018-12-23T07:56:09.769Z,49.45
2018-12-23T07:58:43.393Z,40.05
2018-12-23T08:01:16.511Z,41.63
2018-12-23T08:03:49.867Z,45.08
2018-12-23T08:06:26.654Z,43.10
2018-12-23T08:09:00.471Z,44.30
2018-12-23T08:11:35.743Z,46.02
2018-12-23T08:14:10.099Z,44.63
2018-12-23T08:16:44.095Z,43.28
2018-12-23T08:19:18.278Z,49.75
2018-12-23T08:21:52.550Z,44.85
2018-12-23T08:24:27.971Z,38.65
2018-12-23T08:27:01.849Z,50.30
2018-12-23T08:29:38.676Z,39.05
2018-12-23T08:32:12.487Z,35.73
2018-12-23T08:34:45.716Z,38.28
2018-12-23T08:37:19.595Z,40.60
2018-12-23T08:39:53.500Z,31.00
2018-12-23T08:42:27.401Z,38.70
2018-12-23T08:45:01.252Z,41.75
2018-12-23T08:47:35.620Z,37.65
2018-12-23T08:50:09.538Z,40.17
2018-12-23T08:52:42.735Z,39.73
2018-12-23T08:55:16.738Z,38.23
2018-12-23T08:57:50.407Z,38.58
2018-12-23T09:00:25.883Z,33.18
2018-12-23T09:03:00.123Z,34.85
2018-12-23T09:05:34.302Z,40.25
2018-12-23T09:08:07.730Z,38.95
2018-12-23T09:10:43.888Z,38.23
2018-12-23T09:13:17.257Z,37.17
2018-12-23T09:15:52.186Z,36.08
2018-12-23T09:18:26.399Z,41.00
2018-12-23T09:20:59.558Z,31.57
2018-12-23T09:23:33.813Z,37.67
2018-12-23T09:26:06.859Z,38.83
2018-12-23T09:28:47.931Z,33.15
2018-12-23T09:31:22.331Z,42.23
2018-12-23T09:33:55.802Z,37.63
2018-12-23T09:36:30.091Z,43.17
2018-12-23T09:39:06.135Z,35.92
2018-12-23T09:41:39.226Z,36.20
2018-12-23T09:44:13.938Z,39.63
2018-12-23T09:46:48.146Z,33.33
2018-12-23T09:49:23.263Z,39.50
2018-12-23T09:51:57.083Z,36.20
2018-12-23T09:54:30.264Z,37.48
2018-12-23T09:57:03.812Z,38.88
2018-12-23T09:59:38.009Z,44.08
2018-12-23T10:02:13.769Z,36.63
2018-12-23T10:04:47.977Z,41.25
2018-12-23T10:07:21.975Z,30.62
2018-12-23T10:09:56.363Z,30.75
2018-12-23T10:12:30.257Z,32.17
2018-12-23T10:15:06.996Z,35.33
2018-12-23T10:17:41.819Z,44.50
2018-12-23T10:20:15.609Z,36.63
2018-12-23T10:22:49.905Z,51.30
2018-12-23T10:25:23.134Z,37.40
2018-12-23T10:27:57.391Z,40.17
2018-12-23T10:30:31.377Z,36.98
2018-12-23T10:33:04.601Z,39.60
2018-12-23T10:35:38.594Z,34.67
2018-12-23T10:38:18.299Z,38.65
2018-12-23T12:59:24.873Z,31.68
2018-12-23T13:02:03.773Z,24.82
2018-12-23T13:04:42.705Z,26.45
2018-12-23T13:07:22.448Z,24.20
2018-12-23T13:10:00.541Z,20.97
2018-12-23T13:12:56.646Z,22.25
2018-12-23T13:15:37.193Z,21.15
2018-12-23T13:18:20.487Z,18.32
2018-12-23T13:20:57.729Z,21.68
2018-12-23T13:23:50.873Z,17.98
2018-12-23T13:26:49.313Z,20.90
2018-12-23T13:29:32.144Z,21.97
2018-12-23T13:32:06.049Z,20.57
2018-12-23T13:34:43.554Z,19.73
2018-12-23T13:37:17.433Z,21.50
2018-12-23T13:39:56.265Z,23.92
2018-12-23T13:42:54.167Z,18.95
2018-12-23T13:46:25.724Z,21.62
2018-12-23T13:49:26.334Z,16.00
2018-12-23T13:52:27.990Z,20.20
2018-12-23T13:55:57.204Z,18.73
2018-12-23T13:58:56.531Z,18.17
2018-12-23T14:02:10.031Z,17.55
2018-12-23T14:05:22.890Z,22.60
2018-12-23T14:08:25.775Z,15.35
2018-12-23T14:11:38.095Z,17.10
2018-12-23T14:14:11.726Z,14.70
2018-12-23T14:16:46.876Z,14.53
2018-12-23T14:19:22.015Z,16.60
2018-12-23T14:21:56.022Z,14.43
2018-12-23T14:24:40.100Z,9.88
2018-12-23T14:27:19.352Z,12.82
2018-12-23T14:29:57.401Z,13.35
2018-12-23T14:32:41.558Z,16.25
2018-12-23T14:35:18.581Z,11.50
2018-12-23T14:37:56.757Z,16.00
2018-12-23T14:40:37.846Z,15.72
2018-12-23T14:43:28.837Z,20.37
2018-12-23T14:46:10.471Z,17.92
2018-12-23T14:48:49.237Z,15.35
2018-12-23T14:51:25.193Z,14.10
2018-12-23T14:54:00.246Z,14.20
2018-12-23T14:56:40.390Z,16.65
2018-12-23T14:59:18.594Z,16.30
2018-12-23T15:01:54.125Z,19.60
2018-12-23T15:04:31.272Z,22.65
2018-12-23T15:07:05.504Z,22.42
2018-12-23T15:09:40.530Z,22.32
2018-12-23T15:12:17.774Z,21.00
2018-12-23T15:14:56.216Z,15.43
2018-12-23T15:17:32.296Z,22.67
2018-12-23T15:20:07.646Z,30.02
2018-12-23T15:22:45.500Z,15.53
2018-12-23T15:25:21.295Z,20.55
2018-12-23T15:28:23.722Z,22.67
2018-12-23T15:31:04.944Z,20.85
2018-12-23T15:33:40.804Z,20.85
2018-12-23T15:36:16.120Z,26.37
2018-12-23T15:38:53.404Z,26.82
2018-12-23T15:41:28.351Z,29.75
2018-12-23T15:44:02.866Z,19.05
2018-12-23T15:46:36.759Z,18.20
2018-12-23T15:49:10.699Z,28.85
2018-12-23T15:51:56.361Z,24.57
2018-12-23T15:54:46.225Z,27.00
2018-12-23T15:57:22.165Z,25.92
2018-12-23T15:59:59.823Z,29.37
2018-12-23T16:03:13.934Z,30.80
2018-12-23T16:05:55.230Z,29.00
2018-12-23T16:08:28.896Z,22.82
2018-12-23T16:11:02.410Z,25.77
2018-12-23T16:13:37.406Z,29.90
2018-12-23T16:16:11.137Z,36.45
2018-12-23T16:18:44.832Z,33.53
2018-12-23T16:21:18.980Z,33.53
2018-12-23T16:23:53.429Z,27.32
2018-12-23T16:26:29.188Z,30.52
2018-12-23T16:29:03.126Z,27.52
2018-12-23T16:31:40.566Z,28.35
2018-12-23T16:34:16.371Z,32.58
2018-12-23T16:36:50.396Z,25.17
2018-12-23T16:39:25.085Z,26.37
2018-12-23T16:41:59.168Z,31.42
2018-12-23T16:44:33.520Z,31.07
2018-12-23T16:47:08.299Z,34.00
2018-12-23T16:49:42.722Z,30.77
2018-12-23T16:52:16.789Z,42.10
2018-12-23T16:54:50.642Z,36.13
2018-12-23T16:57:24.490Z,33.88
2018-12-23T16:59:58.609Z,34.38
2018-12-23T17:02:32.617Z,37.83
2018-12-23T17:05:07.652Z,44.08
2018-12-23T17:07:42.099Z,44.00
2018-12-23T17:10:17.412Z,43.15
2018-12-23T17:12:52.397Z,45.95
2018-12-23T17:15:27.073Z,32.70
2018-12-23T17:18:00.151Z,36.25
2018-12-23T17:20:33.273Z,39.08
2018-12-23T17:23:07.317Z,31.42
2018-12-23T17:25:44.183Z,33.90
2018-12-23T17:28:19.182Z,36.28
2018-12-23T17:30:53.069Z,37.90
2018-12-23T17:33:26.911Z,40.78
2018-12-23T17:36:00.800Z,41.13
2018-12-23T17:38:37.004Z,41.92
2018-12-23T17:41:10.705Z,35.60
2018-12-23T17:43:48.140Z,41.15
2018-12-23T17:46:23.788Z,49.18
2018-12-23T17:48:58.230Z,40.67
2018-12-23T17:51:31.859Z,45.92
2018-12-23T17:54:07.540Z,50.23
2018-12-23T17:56:41.560Z,52.13
2018-12-23T17:59:15.736Z,43.60
2018-12-23T18:01:49.720Z,47.67
2018-12-23T18:04:23.982Z,70.85
2018-12-23T18:07:03.708Z,48.50
2018-12-23T18:09:37.007Z,45.15
2018-12-23T18:12:10.525Z,48.83
2018-12-23T18:14:47.169Z,37.58
2018-12-23T18:17:20.927Z,46.68
2018-12-23T18:19:54.883Z,62.38
2018-12-23T18:22:28.777Z,52.40
2018-12-23T18:25:03.505Z,53.33
2018-12-23T18:27:37.103Z,42.58
2018-12-23T18:30:10.090Z,52.60
2018-12-23T18:32:43.322Z,55.65
2018-12-23T18:35:17.070Z,56.05
2018-12-23T18:37:51.408Z,40.58
2018-12-23T18:40:33.162Z,48.80
2018-12-23T18:43:01.958Z,53.23
2018-12-23T18:45:38.518Z,49.45
2018-12-23T18:48:14.334Z,36.98
2018-12-23T18:50:49.105Z,37.45
2018-12-23T18:53:22.345Z,49.83
2018-12-23T18:55:56.478Z,51.23
2018-12-23T18:58:30.497Z,45.55
2018-12-23T19:01:07.227Z,54.40
2018-12-23T19:03:41.667Z,56.63
2018-12-23T19:06:19.463Z,50.43
2018-12-23T19:09:08.745Z,55.00
2018-12-23T19:12:19.304Z,44.83
2018-12-23T19:15:51.995Z,36.63
2018-12-23T19:19:21.618Z,44.63
2018-12-23T19:22:19.279Z,51.08
2018-12-23T19:25:09.879Z,43.48
2018-12-23T19:28:13.095Z,51.18
2018-12-23T19:31:29.619Z,34.45
2018-12-23T19:34:48.711Z,27.07
2018-12-23T19:38:17.948Z,32.78
2018-12-23T19:41:40.651Z,26.05
2018-12-23T19:45:06.070Z,35.73
2018-12-23T19:48:16.675Z,53.55
2018-12-23T19:51:40.409Z,61.85
2018-12-23T19:54:50.953Z,55.05
2018-12-23T19:57:46.090Z,108.25
2018-12-23T20:00:41.892Z,261.55
2018-12-23T20:04:15.248Z,234.05
2018-12-23T20:07:29.003Z,119.25
2018-12-23T20:10:47.772Z,202.40
2018-12-23T20:14:16.178Z,186.35
2018-12-23T20:17:27.088Z,97.90
2018-12-23T20:20:37.842Z,52.30
2018-12-23T20:23:48.589Z,17.15
2018-12-23T20:26:55.494Z,21.35
2018-12-23T20:30:31.750Z,21.45
2018-12-23T20:33:39.447Z,24.25
2018-12-23T20:36:52.770Z,16.90
2018-12-23T20:40:07.241Z,17.75
2018-12-23T20:43:33.390Z,16.70
2018-12-23T20:46:33.582Z,19.95
2018-12-23T20:49:30.477Z,9.58
2018-12-23T20:52:36.675Z,15.63
2018-12-23T20:55:32.244Z,19.65
2018-12-23T20:58:43.483Z,14.25
2018-12-23T21:01:54.394Z,18.35
2018-12-23T21:05:44.184Z,14.13
2018-12-23T21:08:54.971Z,12.43
2018-12-23T21:12:10.597Z,15.40
2018-12-23T21:15:21.109Z,11.08
2018-12-23T21:18:31.385Z,12.03
2018-12-23T21:21:22.851Z,10.15
2018-12-23T21:24:33.980Z,12.37
2018-12-23T21:28:04.414Z,13.88
2018-12-23T21:31:30.046Z,7.90
2018-12-23T21:34:40.191Z,10.38
2018-12-23T21:37:33.961Z,8.83
2018-12-23T21:40:45.914Z,14.38
2018-12-23T21:44:06.201Z,12.03
2018-12-23T21:47:27.790Z,10.15
2018-12-23T21:50:19.090Z,14.43
2018-12-23T21:53:34.177Z,6.78
2018-12-23T21:57:07.531Z,10.43
2018-12-23T22:00:09.413Z,9.45
2018-12-23T22:03:27.614Z,5.40
2018-12-23T22:07:04.800Z,6.33
2018-12-23T22:10:22.058Z,5.67
2018-12-23T22:13:28.041Z,5.28
2018-12-23T22:16:04.267Z,5.53
2018-12-23T22:18:37.853Z,5.08
2018-12-23T22:21:11.238Z,5.80
2018-12-23T22:23:46.484Z,8.03
2018-12-23T22:26:20.715Z,5.20
2018-12-23T22:29:06.487Z,5.65
2018-12-23T22:31:42.273Z,6.78
2018-12-23T22:34:18.425Z,4.58
2018-12-23T22:36:52.738Z,5.47
2018-12-23T22:39:28.480Z,4.92
2018-12-23T22:42:02.780Z,7.62
2018-12-23T22:44:37.041Z,8.65
2018-12-23T22:47:10.745Z,8.00
2018-12-23T22:49:44.827Z,10.75
2018-12-23T22:52:19.281Z,7.60
2018-12-23T22:54:57.134Z,9.13
2018-12-23T22:57:30.731Z,8.40
2018-12-23T23:00:09.109Z,9.30
2018-12-23T23:02:50.015Z,11.65
2018-12-23T23:05:35.007Z,8.90
2018-12-23T23:08:11.521Z,11.90
2018-12-23T23:10:49.313Z,11.03
2018-12-23T23:13:29.169Z,12.68
2018-12-23T23:16:10.827Z,12.13
2018-12-23T23:18:59.231Z,12.75
2018-12-23T23:21:40.752Z,11.97
2018-12-23T23:24:19.479Z,9.88
2018-12-23T23:27:00.153Z,11.90
2018-12-23T23:30:01.379Z,9.25
2018-12-23T23:32:51.120Z,10.60
2018-12-23T23:35:29.286Z,10.30
2018-12-23T23:38:04.471Z,12.75
2018-12-23T23:40:37.280Z,14.45
2018-12-23T23:43:20.751Z,10.38
2018-12-23T23:45:58.966Z,10.25
2018-12-23T23:48:32.443Z,12.28
2018-12-23T23:51:07.097Z,13.20
2018-12-23T23:53:40.481Z,15.95
2018-12-23T23:56:13.937Z,13.70
2018-12-23T23:58:49.325Z,15.60
